sensor_id;sensor_type;location;lat;lon;timestamp;pressure;altitude;pressure_sealevel;temperature;humidity
6395;BME280;3230;42.588;23.358;2022-11-21T00:00:44;89810.81;;;9.12;100.00
6395;BME280;3230;42.588;23.358;2022-11-21T00:03:10;89820.88;;;9.05;100.00
6395;BME280;3230;42.588;23.358;2022-11-21T00:05:41;89814.78;;;9.09;100.00
6395;BME280;3230;42.588;23.358;2022-11-21T00:08:08;89799.78;;;9.15;100.00
6395;BME280;3230;42.588;23.358;2022-11-21T00:10:35;89797.66;;;9.17;100.00
6395;BME280;3230;42.588;23.358;2022-11-21T00:13:00;89785.53;;;9.21;100.00
6395;BME280;3230;42.588;23.358;2022-11-21T00:15:25;89782.34;;;9.24;100.00
6395;BME280;3230;42.588;23.358;2022-11-21T00:17:51;89782.84;;;9.35;100.00
6395;BME280;3230;42.588;23.358;2022-11-21T00:20:18;89775.56;;;9.46;100.00
6395;BME280;3230;42.588;23.358;2022-11-21T00:22:45;89770.88;;;9.57;100.00
6395;BME280;3230;42.588;23.358;2022-11-21T00:25:11;89771.75;;;9.52;100.00
6395;BME280;3230;42.588;23.358;2022-11-21T00:27:37;89766.13;;;9.59;100.00
6395;BME280;3230;42.588;23.358;2022-11-21T00:30:03;89746.94;;;9.64;100.00
6395;BME280;3230;42.588;23.358;2022-11-21T00:32:30;89740.63;;;9.65;100.00
6395;BME280;3230;42.588;23.358;2022-11-21T00:34:55;89743.59;;;9.72;100.00
6395;BME280;3230;42.588;23.358;2022-11-21T00:37:21;89747.81;;;9.82;100.00
6395;BME280;3230;42.588;23.358;2022-11-21T00:39:46;89745.72;;;9.92;100.00
6395;BME280;3230;42.588;23.358;2022-11-21T00:42:12;89755.88;;;9.94;100.00
6395;BME280;3230;42.588;23.358;2022-11-21T00:44:38;89744.31;;;9.95;100.00
6395;BME280;3230;42.588;23.358;2022-11-21T00:47:03;89756.59;;;9.86;100.00
6395;BME280;3230;42.588;23.358;2022-11-21T00:49:29;89752.91;;;9.87;100.00
6395;BME280;3230;42.588;23.358;2022-11-21T00:51:54;89762.53;;;9.77;100.00
6395;BME280;3230;42.588;23.358;2022-11-21T00:54:19;89747.63;;;9.78;100.00
6395;BME280;3230;42.588;23.358;2022-11-21T00:56:45;89725.50;;;9.84;100.00
6395;BME280;3230;42.588;23.358;2022-11-21T00:59:10;89727.63;;;9.82;100.00
6395;BME280;3230;42.588;23.358;2022-11-21T01:01:36;89705.53;;;9.97;100.00
6395;BME280;3230;42.588;23.358;2022-11-21T01:04:01;89707.72;;;10.04;100.00
6395;BME280;3230;42.588;23.358;2022-11-21T01:06:26;89702.81;;;10.11;100.00
6395;BME280;3230;42.588;23.358;2022-11-21T01:08:52;89709.56;;;10.03;100.00
6395;BME280;3230;42.588;23.358;2022-11-21T01:11:19;89705.41;;;10.02;100.00
6395;BME280;3230;42.588;23.358;2022-11-21T01:13:45;89719.09;;;9.99;100.00
6395;BME280;3230;42.588;23.358;2022-11-21T01:16:17;89679.44;;;10.15;100.00
6395;BME280;3230;42.588;23.358;2022-11-21T01:18:44;89677.88;;;10.14;100.00
6395;BME280;3230;42.588;23.358;2022-11-21T01:21:16;89679.47;;;10.23;100.00
6395;BME280;3230;42.588;23.358;2022-11-21T01:23:42;89686.56;;;10.32;100.00
6395;BME280;3230;42.588;23.358;2022-11-21T01:26:14;89677.03;;;10.36;100.00
6395;BME280;3230;42.588;23.358;2022-11-21T01:28:40;89680.47;;;10.45;100.00
6395;BME280;3230;42.588;23.358;2022-11-21T01:31:08;89682.19;;;10.50;100.00
6395;BME280;3230;42.588;23.358;2022-11-21T01:33:34;89678.91;;;10.44;100.00
6395;BME280;3230;42.588;23.358;2022-11-21T01:36:20;89683.53;;;10.47;100.00
6395;BME280;3230;42.588;23.358;2022-11-21T01:38:48;89672.47;;;10.50;100.00
6395;BME280;3230;42.588;23.358;2022-11-21T01:41:19;89666.59;;;10.45;100.00
6395;BME280;3230;42.588;23.358;2022-11-21T01:43:45;89682.34;;;10.53;100.00
6395;BME280;3230;42.588;23.358;2022-11-21T01:46:16;89664.16;;;10.66;100.00
6395;BME280;3230;42.588;23.358;2022-11-21T01:56:59;89704.53;;;10.82;100.00
6395;BME280;3230;42.588;23.358;2022-11-21T01:59:33;89693.78;;;10.84;100.00
6395;BME280;3230;42.588;23.358;2022-11-21T02:02:02;89697.47;;;10.83;100.00
6395;BME280;3230;42.588;23.358;2022-11-21T02:04:31;89697.31;;;10.88;100.00
6395;BME280;3230;42.588;23.358;2022-11-21T02:06:58;89708.41;;;10.85;100.00
6395;BME280;3230;42.588;23.358;2022-11-21T02:09:26;89700.84;;;10.83;100.00
6395;BME280;3230;42.588;23.358;2022-11-21T02:11:58;89696.81;;;10.60;100.00
6395;BME280;3230;42.588;23.358;2022-11-21T02:14:26;89699.88;;;10.62;100.00
6395;BME280;3230;42.588;23.358;2022-11-21T02:16:54;89713.31;;;10.69;100.00
6395;BME280;3230;42.588;23.358;2022-11-21T02:19:57;89706.25;;;10.69;100.00
6395;BME280;3230;42.588;23.358;2022-11-21T02:22:37;89708.22;;;10.72;100.00
6395;BME280;3230;42.588;23.358;2022-11-21T02:25:11;89715.66;;;10.79;100.00
6395;BME280;3230;42.588;23.358;2022-11-21T02:27:38;89704.38;;;10.79;100.00
6395;BME280;3230;42.588;23.358;2022-11-21T02:30:05;89687.59;;;10.71;100.00
6395;BME280;3230;42.588;23.358;2022-11-21T02:32:34;89671.22;;;10.56;100.00
6395;BME280;3230;42.588;23.358;2022-11-21T02:35:01;89687.84;;;10.52;100.00
6395;BME280;3230;42.588;23.358;2022-11-21T02:37:27;89689.56;;;10.48;100.00
6395;BME280;3230;42.588;23.358;2022-11-21T02:39:53;89684.31;;;10.48;100.00
6395;BME280;3230;42.588;23.358;2022-11-21T02:47:41;89643.97;;;10.40;100.00
6395;BME280;3230;42.588;23.358;2022-11-21T02:50:14;89631.03;;;10.52;100.00
6395;BME280;3230;42.588;23.358;2022-11-21T02:52:41;89635.63;;;10.55;100.00
6395;BME280;3230;42.588;23.358;2022-11-21T02:55:07;89635.78;;;10.59;100.00
6395;BME280;3230;42.588;23.358;2022-11-21T02:57:33;89643.97;;;10.66;100.00
6395;BME280;3230;42.588;23.358;2022-11-21T02:59:58;89621.03;;;10.72;99.77
6395;BME280;3230;42.588;23.358;2022-11-21T03:02:24;89631.94;;;10.74;99.72
6395;BME280;3230;42.588;23.358;2022-11-21T03:04:49;89646.75;;;10.79;99.72
6395;BME280;3230;42.588;23.358;2022-11-21T03:07:15;89638.56;;;10.71;100.00
6395;BME280;3230;42.588;23.358;2022-11-21T03:09:41;89659.69;;;10.75;100.00
6395;BME280;3230;42.588;23.358;2022-11-21T03:12:07;89647.53;;;10.79;100.00
6395;BME280;3230;42.588;23.358;2022-11-21T03:14:34;89636.75;;;10.72;100.00
6395;BME280;3230;42.588;23.358;2022-11-21T03:16:59;89644.13;;;10.70;100.00
6395;BME280;3230;42.588;23.358;2022-11-21T03:19:25;89623.16;;;10.70;100.00
6395;BME280;3230;42.588;23.358;2022-11-21T03:21:51;89616.84;;;10.71;100.00
6395;BME280;3230;42.588;23.358;2022-11-21T03:24:16;89639.19;;;10.77;100.00
6395;BME280;3230;42.588;23.358;2022-11-21T03:26:41;89639.03;;;10.74;100.00
6395;BME280;3230;42.588;23.358;2022-11-21T03:29:07;89637.50;;;10.72;100.00
6395;BME280;3230;42.588;23.358;2022-11-21T03:31:33;89627.16;;;10.76;100.00
6395;BME280;3230;42.588;23.358;2022-11-21T03:33:58;89625.63;;;10.75;100.00
6395;BME280;3230;42.588;23.358;2022-11-21T03:36:23;89632.88;;;10.78;100.00
6395;BME280;3230;42.588;23.358;2022-11-21T03:38:49;89630.25;;;10.78;100.00
6395;BME280;3230;42.588;23.358;2022-11-21T03:41:14;89630.09;;;10.83;100.00
6395;BME280;3230;42.588;23.358;2022-11-21T03:46:21;89615.94;;;10.84;98.86
6395;BME280;3230;42.588;23.358;2022-11-21T03:48:47;89621.47;;;10.83;99.86
6395;BME280;3230;42.588;23.358;2022-11-21T03:51:13;89618.38;;;10.90;98.43
6395;BME280;3230;42.588;23.358;2022-11-21T03:53:38;89608.81;;;10.85;99.78
6395;BME280;3230;42.588;23.358;2022-11-21T03:56:03;89592.78;;;10.78;100.00
6395;BME280;3230;42.588;23.358;2022-11-21T03:58:29;89598.06;;;10.86;99.47
6395;BME280;3230;42.588;23.358;2022-11-21T04:00:54;89604.97;;;10.82;100.00
6395;BME280;3230;42.588;23.358;2022-11-21T04:03:20;89605.59;;;10.79;100.00
6395;BME280;3230;42.588;23.358;2022-11-21T04:05:45;89586.47;;;10.79;100.00
6395;BME280;3230;42.588;23.358;2022-11-21T04:08:11;89580.66;;;10.73;100.00
6395;BME280;3230;42.588;23.358;2022-11-21T04:10:36;89575.09;;;10.75;100.00
6395;BME280;3230;42.588;23.358;2022-11-21T04:13:01;89571.69;;;10.74;100.00
6395;BME280;3230;42.588;23.358;2022-11-21T04:15:27;89574.94;;;10.71;100.00
6395;BME280;3230;42.588;23.358;2022-11-21T04:17:52;89589.41;;;10.77;100.00
6395;BME280;3230;42.588;23.358;2022-11-21T04:20:18;89590.94;;;10.87;99.83
6395;BME280;3230;42.588;23.358;2022-11-21T04:22:43;89580.94;;;10.80;99.92
6395;BME280;3230;42.588;23.358;2022-11-21T04:25:09;89561.66;;;10.85;99.11
6395;BME280;3230;42.588;23.358;2022-11-21T04:27:34;89575.84;;;10.93;98.20
6395;BME280;3230;42.588;23.358;2022-11-21T04:29:59;89559.19;;;10.97;97.97
6395;BME280;3230;42.588;23.358;2022-11-21T04:32:25;89559.03;;;10.94;98.09
6395;BME280;3230;42.588;23.358;2022-11-21T04:34:50;89559.94;;;10.98;97.58
6395;BME280;3230;42.588;23.358;2022-11-21T04:37:16;89570.44;;;10.98;96.77
6395;BME280;3230;42.588;23.358;2022-11-21T04:39:41;89565.31;;;11.10;95.54
6395;BME280;3230;42.588;23.358;2022-11-21T04:42:06;89555.00;;;11.05;95.33
6395;BME280;3230;42.588;23.358;2022-11-21T04:44:32;89571.63;;;11.09;95.23
6395;BME280;3230;42.588;23.358;2022-11-21T04:46:57;89588.44;;;11.08;94.96
6395;BME280;3230;42.588;23.358;2022-11-21T04:49:24;89604.31;;;11.12;94.74
6395;BME280;3230;42.588;23.358;2022-11-21T04:51:49;89613.75;;;11.04;94.69
6395;BME280;3230;42.588;23.358;2022-11-21T04:54:15;89641.97;;;11.07;94.19
6395;BME280;3230;42.588;23.358;2022-11-21T04:56:40;89639.03;;;10.91;95.63
6395;BME280;3230;42.588;23.358;2022-11-21T04:59:06;89618.38;;;10.90;95.35
6395;BME280;3230;42.588;23.358;2022-11-21T05:01:31;89676.50;;;10.92;96.29
6395;BME280;3230;42.588;23.358;2022-11-21T05:03:57;89684.06;;;10.93;95.93
6395;BME280;3230;42.588;23.358;2022-11-21T05:06:22;89708.88;;;10.96;96.35
6395;BME280;3230;42.588;23.358;2022-11-21T05:08:47;89683.75;;;10.86;96.84
6395;BME280;3230;42.588;23.358;2022-11-21T05:11:13;89679.25;;;10.78;98.47
6395;BME280;3230;42.588;23.358;2022-11-21T05:13:57;89705.00;;;10.76;98.32
6395;BME280;3230;42.588;23.358;2022-11-21T05:16:23;89694.38;;;10.72;99.83
6395;BME280;3230;42.588;23.358;2022-11-21T05:18:48;89706.19;;;10.61;100.00
6395;BME280;3230;42.588;23.358;2022-11-21T05:21:13;89720.41;;;10.86;100.00
6395;BME280;3230;42.588;23.358;2022-11-21T05:23:39;89726.09;;;10.62;100.00
6395;BME280;3230;42.588;23.358;2022-11-21T05:26:04;89720.25;;;10.65;98.42
6395;BME280;3230;42.588;23.358;2022-11-21T05:28:30;89703.16;;;10.67;98.48
6395;BME280;3230;42.588;23.358;2022-11-21T05:30:55;89686.50;;;10.90;97.43
6395;BME280;3230;42.588;23.358;2022-11-21T05:33:20;89700.38;;;10.64;100.00
6395;BME280;3230;42.588;23.358;2022-11-21T05:35:46;89729.50;;;10.62;100.00
6395;BME280;3230;42.588;23.358;2022-11-21T05:38:11;89698.78;;;10.45;100.00
6395;BME280;3230;42.588;23.358;2022-11-21T05:40:37;89721.50;;;10.76;100.00
6395;BME280;3230;42.588;23.358;2022-11-21T05:43:02;89718.41;;;10.74;99.63
6395;BME280;3230;42.588;23.358;2022-11-21T05:45:49;89711.00;;;10.59;100.00
6395;BME280;3230;42.588;23.358;2022-11-21T05:48:16;89703.16;;;10.18;100.00
6395;BME280;3230;42.588;23.358;2022-11-21T05:50:41;89709.59;;;10.12;100.00
6395;BME280;3230;42.588;23.358;2022-11-21T05:53:07;89718.09;;;10.27;100.00
6395;BME280;3230;42.588;23.358;2022-11-21T05:55:35;89715.47;;;10.27;100.00
6395;BME280;3230;42.588;23.358;2022-11-21T05:58:01;89725.88;;;10.40;100.00
6395;BME280;3230;42.588;23.358;2022-11-21T06:00:27;89709.88;;;10.42;100.00
6395;BME280;3230;42.588;23.358;2022-11-21T06:02:53;89752.56;;;10.51;100.00
6395;BME280;3230;42.588;23.358;2022-11-21T06:05:37;89748.56;;;10.45;100.00
6395;BME280;3230;42.588;23.358;2022-11-21T06:08:02;89763.81;;;10.52;100.00
6395;BME280;3230;42.588;23.358;2022-11-21T06:10:28;89750.63;;;10.75;100.00
6395;BME280;3230;42.588;23.358;2022-11-21T06:12:53;89772.72;;;11.00;100.00
6395;BME280;3230;42.588;23.358;2022-11-21T06:15:18;89793.06;;;11.03;99.90
6395;BME280;3230;42.588;23.358;2022-11-21T06:17:44;89789.84;;;11.15;98.16
6395;BME280;3230;42.588;23.358;2022-11-21T06:20:10;89781.50;;;11.13;97.08
6395;BME280;3230;42.588;23.358;2022-11-21T06:22:35;89777.50;;;11.15;95.46
6395;BME280;3230;42.588;23.358;2022-11-21T06:25:01;89778.41;;;10.93;98.27
6395;BME280;3230;42.588;23.358;2022-11-21T06:27:28;89803.00;;;10.66;100.00
6395;BME280;3230;42.588;23.358;2022-11-21T06:29:53;89785.00;;;10.73;98.71
6395;BME280;3230;42.588;23.358;2022-11-21T06:32:19;89808.34;;;10.61;99.38
6395;BME280;3230;42.588;23.358;2022-11-21T06:34:44;89801.03;;;10.80;97.80
6395;BME280;3230;42.588;23.358;2022-11-21T06:37:09;89797.09;;;10.20;100.00
6395;BME280;3230;42.588;23.358;2022-11-21T06:39:35;89807.34;;;10.07;100.00
6395;BME280;3230;42.588;23.358;2022-11-21T06:42:00;89823.75;;;9.99;100.00
6395;BME280;3230;42.588;23.358;2022-11-21T06:44:26;89798.25;;;9.82;100.00
6395;BME280;3230;42.588;23.358;2022-11-21T06:46:51;89796.41;;;9.37;100.00
6395;BME280;3230;42.588;23.358;2022-11-21T06:49:17;89811.59;;;8.99;100.00
6395;BME280;3230;42.588;23.358;2022-11-21T06:51:42;89782.06;;;9.12;100.00
6395;BME280;3230;42.588;23.358;2022-11-21T06:54:08;89800.94;;;8.72;100.00
6395;BME280;3230;42.588;23.358;2022-11-21T06:56:33;89805.50;;;8.53;100.00
6395;BME280;3230;42.588;23.358;2022-11-21T06:58:59;89801.66;;;8.03;100.00
6395;BME280;3230;42.588;23.358;2022-11-21T07:01:24;89814.91;;;7.41;100.00
6395;BME280;3230;42.588;23.358;2022-11-21T07:03:50;89827.66;;;7.23;100.00
6395;BME280;3230;42.588;23.358;2022-11-21T07:06:16;89829.13;;;6.91;100.00
6395;BME280;3230;42.588;23.358;2022-11-21T07:08:41;89843.22;;;6.66;100.00
6395;BME280;3230;42.588;23.358;2022-11-21T07:11:09;89841.28;;;6.28;100.00
6395;BME280;3230;42.588;23.358;2022-11-21T07:13:34;89830.94;;;6.23;100.00
6395;BME280;3230;42.588;23.358;2022-11-21T07:16:03;89815.75;;;5.47;100.00
6395;BME280;3230;42.588;23.358;2022-11-21T07:18:29;89845.44;;;5.36;100.00
6395;BME280;3230;42.588;23.358;2022-11-21T07:20:59;89840.84;;;5.27;100.00
6395;BME280;3230;42.588;23.358;2022-11-21T07:23:25;89843.56;;;5.07;100.00
6395;BME280;3230;42.588;23.358;2022-11-21T07:25:50;89861.03;;;4.86;100.00
6395;BME280;3230;42.588;23.358;2022-11-21T07:28:16;89864.13;;;4.93;100.00
6395;BME280;3230;42.588;23.358;2022-11-21T07:30:41;89868.28;;;4.94;100.00
6395;BME280;3230;42.588;23.358;2022-11-21T07:33:07;89872.72;;;4.88;100.00
6395;BME280;3230;42.588;23.358;2022-11-21T07:35:34;89877.09;;;4.93;100.00
6395;BME280;3230;42.588;23.358;2022-11-21T07:38:00;89880.53;;;4.83;100.00
6395;BME280;3230;42.588;23.358;2022-11-21T07:40:26;89885.75;;;4.78;100.00
6395;BME280;3230;42.588;23.358;2022-11-21T07:42:52;89879.00;;;4.77;100.00
6395;BME280;3230;42.588;23.358;2022-11-21T07:45:17;89889.09;;;4.78;100.00
6395;BME280;3230;42.588;23.358;2022-11-21T07:47:43;89893.78;;;4.82;100.00
6395;BME280;3230;42.588;23.358;2022-11-21T07:50:09;89876.13;;;4.84;100.00
6395;BME280;3230;42.588;23.358;2022-11-21T07:52:36;89901.53;;;4.87;100.00
6395;BME280;3230;42.588;23.358;2022-11-21T07:55:01;89893.72;;;4.97;100.00
6395;BME280;3230;42.588;23.358;2022-11-21T07:57:28;89906.69;;;4.97;100.00
6395;BME280;3230;42.588;23.358;2022-11-21T07:59:53;89922.63;;;4.70;100.00
6395;BME280;3230;42.588;23.358;2022-11-21T08:02:19;89931.16;;;4.80;100.00
6395;BME280;3230;42.588;23.358;2022-11-21T08:04:46;89952.38;;;4.93;100.00
6395;BME280;3230;42.588;23.358;2022-11-21T08:07:12;89969.53;;;4.89;100.00
6395;BME280;3230;42.588;23.358;2022-11-21T08:09:38;89960.19;;;4.88;100.00
6395;BME280;3230;42.588;23.358;2022-11-21T08:12:03;89956.63;;;4.68;100.00
6395;BME280;3230;42.588;23.358;2022-11-21T08:14:29;89973.22;;;4.77;100.00
6395;BME280;3230;42.588;23.358;2022-11-21T08:16:54;89979.94;;;4.84;100.00
6395;BME280;3230;42.588;23.358;2022-11-21T08:19:20;89984.88;;;4.75;100.00
6395;BME280;3230;42.588;23.358;2022-11-21T08:21:45;89976.34;;;4.59;100.00
6395;BME280;3230;42.588;23.358;2022-11-21T08:24:10;89991.41;;;4.67;100.00
6395;BME280;3230;42.588;23.358;2022-11-21T08:26:41;89990.38;;;4.63;100.00
6395;BME280;3230;42.588;23.358;2022-11-21T08:29:06;90000.19;;;4.71;100.00
6395;BME280;3230;42.588;23.358;2022-11-21T08:31:32;89995.28;;;4.64;100.00
6395;BME280;3230;42.588;23.358;2022-11-21T08:33:57;90007.50;;;4.64;100.00
6395;BME280;3230;42.588;23.358;2022-11-21T08:36:23;89990.09;;;4.70;100.00
6395;BME280;3230;42.588;23.358;2022-11-21T08:38:48;90001.00;;;4.67;100.00
6395;BME280;3230;42.588;23.358;2022-11-21T08:41:14;90002.78;;;4.71;100.00
6395;BME280;3230;42.588;23.358;2022-11-21T08:43:58;90010.59;;;4.71;100.00
6395;BME280;3230;42.588;23.358;2022-11-21T08:46:23;90015.78;;;4.71;100.00
6395;BME280;3230;42.588;23.358;2022-11-21T08:48:53;90009.03;;;4.75;100.00
6395;BME280;3230;42.588;23.358;2022-11-21T08:51:19;89994.53;;;4.59;100.00
6395;BME280;3230;42.588;23.358;2022-11-21T08:53:44;90009.56;;;4.52;100.00
6395;BME280;3230;42.588;23.358;2022-11-21T08:56:10;89991.19;;;4.53;100.00
6395;BME280;3230;42.588;23.358;2022-11-21T08:58:35;89988.31;;;4.50;100.00
6395;BME280;3230;42.588;23.358;2022-11-21T09:01:00;90008.53;;;4.37;100.00
6395;BME280;3230;42.588;23.358;2022-11-21T09:03:26;89998.94;;;4.58;100.00
6395;BME280;3230;42.588;23.358;2022-11-21T09:05:51;89996.63;;;4.26;100.00
6395;BME280;3230;42.588;23.358;2022-11-21T09:08:17;90009.84;;;4.29;100.00
6395;BME280;3230;42.588;23.358;2022-11-21T09:10:42;90014.28;;;4.29;100.00
6395;BME280;3230;42.588;23.358;2022-11-21T09:13:07;90024.13;;;4.47;100.00
6395;BME280;3230;42.588;23.358;2022-11-21T09:15:33;90019.69;;;4.48;100.00
6395;BME280;3230;42.588;23.358;2022-11-21T09:18:17;90017.84;;;4.74;100.00
6395;BME280;3230;42.588;23.358;2022-11-21T09:20:43;90028.50;;;4.68;100.00
6395;BME280;3230;42.588;23.358;2022-11-21T09:23:12;90031.09;;;4.73;100.00
6395;BME280;3230;42.588;23.358;2022-11-21T09:25:38;90022.78;;;4.76;100.00
6395;BME280;3230;42.588;23.358;2022-11-21T09:28:06;90032.38;;;4.65;100.00
6395;BME280;3230;42.588;23.358;2022-11-21T09:30:32;90036.81;;;4.49;100.00
6395;BME280;3230;42.588;23.358;2022-11-21T09:33:02;90025.41;;;4.66;100.00
6395;BME280;3230;42.588;23.358;2022-11-21T09:35:28;90026.16;;;4.66;100.00
6395;BME280;3230;42.588;23.358;2022-11-21T09:37:53;90017.88;;;4.69;100.00
6395;BME280;3230;42.588;23.358;2022-11-21T09:40:19;90024.34;;;4.72;100.00
6395;BME280;3230;42.588;23.358;2022-11-21T09:48:12;90023.03;;;4.74;100.00
6395;BME280;3230;42.588;23.358;2022-11-21T09:50:41;90036.25;;;4.88;100.00
6395;BME280;3230;42.588;23.358;2022-11-21T09:55:59;90038.06;;;4.93;100.00
6395;BME280;3230;42.588;23.358;2022-11-21T09:58:43;90034.41;;;4.99;100.00
6395;BME280;3230;42.588;23.358;2022-11-21T10:01:14;90048.97;;;4.95;100.00
6395;BME280;3230;42.588;23.358;2022-11-21T10:03:45;90052.63;;;4.84;100.00
6395;BME280;3230;42.588;23.358;2022-11-21T10:06:32;90035.94;;;5.16;100.00
6395;BME280;3230;42.588;23.358;2022-11-21T10:09:23;90062.66;;;5.16;100.00
6395;BME280;3230;42.588;23.358;2022-11-21T10:12:03;90059.50;;;5.35;100.00
6395;BME280;3230;42.588;23.358;2022-11-21T10:23:22;90065.50;;;5.30;100.00
6395;BME280;3230;42.588;23.358;2022-11-21T10:25:56;90059.75;;;5.33;100.00
6395;BME280;3230;42.588;23.358;2022-11-21T10:31:10;90069.25;;;4.77;100.00
6395;BME280;3230;42.588;23.358;2022-11-21T10:33:37;90068.75;;;4.50;100.00
6395;BME280;3230;42.588;23.358;2022-11-21T10:38:45;90071.31;;;4.65;100.00
6395;BME280;3230;42.588;23.358;2022-11-21T10:41:17;90063.00;;;4.58;100.00
6395;BME280;3230;42.588;23.358;2022-11-21T10:44:00;90059.41;;;4.64;100.00
6395;BME280;3230;42.588;23.358;2022-11-21T10:46:57;90057.03;;;4.78;100.00
6395;BME280;3230;42.588;23.358;2022-11-21T10:49:24;90052.84;;;4.97;100.00
6395;BME280;3230;42.588;23.358;2022-11-21T10:52:06;90058.81;;;4.93;100.00
6395;BME280;3230;42.588;23.358;2022-11-21T10:55:01;90050.56;;;4.75;100.00
6395;BME280;3230;42.588;23.358;2022-11-21T10:57:30;90053.41;;;4.69;100.00
6395;BME280;3230;42.588;23.358;2022-11-21T11:00:22;90060.16;;;4.64;100.00
6395;BME280;3230;42.588;23.358;2022-11-21T11:05:22;90062.00;;;4.48;100.00
6395;BME280;3230;42.588;23.358;2022-11-21T11:08:10;90052.91;;;4.56;100.00
6395;BME280;3230;42.588;23.358;2022-11-21T11:10:40;90045.66;;;4.32;100.00
6395;BME280;3230;42.588;23.358;2022-11-21T11:13:25;90060.19;;;4.34;100.00
6395;BME280;3230;42.588;23.358;2022-11-21T11:18:38;90060.44;;;4.32;100.00
6395;BME280;3230;42.588;23.358;2022-11-21T11:21:28;90053.16;;;4.19;100.00
6395;BME280;3230;42.588;23.358;2022-11-21T11:24:17;90044.84;;;4.37;100.00
6395;BME280;3230;42.588;23.358;2022-11-21T11:29:13;90056.78;;;4.69;100.00
6395;BME280;3230;42.588;23.358;2022-11-21T11:34:34;90064.03;;;4.83;100.00
6395;BME280;3230;42.588;23.358;2022-11-21T11:48:48;90059.63;;;4.93;100.00
6395;BME280;3230;42.588;23.358;2022-11-21T11:51:27;90060.38;;;5.04;100.00
6395;BME280;3230;42.588;23.358;2022-11-21T11:54:02;90060.88;;;5.11;100.00
6395;BME280;3230;42.588;23.358;2022-11-21T11:56:34;90061.16;;;5.00;100.00
6395;BME280;3230;42.588;23.358;2022-11-21T11:59:10;90062.97;;;5.04;100.00
6395;BME280;3230;42.588;23.358;2022-11-21T12:01:58;90063.38;;;5.37;100.00
6395;BME280;3230;42.588;23.358;2022-11-21T12:04:28;90070.13;;;5.43;100.00
6395;BME280;3230;42.588;23.358;2022-11-21T12:07:05;90073.28;;;5.30;100.00
6395;BME280;3230;42.588;23.358;2022-11-21T12:10:04;90083.94;;;5.28;100.00
6395;BME280;3230;42.588;23.358;2022-11-21T12:12:40;90073.28;;;5.30;100.00
6395;BME280;3230;42.588;23.358;2022-11-21T12:15:35;90060.78;;;5.37;100.00
6395;BME280;3230;42.588;23.358;2022-11-21T12:18:28;90061.31;;;5.34;100.00
6395;BME280;3230;42.588;23.358;2022-11-21T12:37:03;90084.75;;;5.08;100.00
6395;BME280;3230;42.588;23.358;2022-11-21T12:57:11;90092.59;;;4.52;100.00
6395;BME280;3230;42.588;23.358;2022-11-21T12:59:47;90088.47;;;4.51;100.00
6395;BME280;3230;42.588;23.358;2022-11-21T13:04:52;90090.53;;;4.23;100.00
6395;BME280;3230;42.588;23.358;2022-11-21T13:07:19;90085.59;;;4.37;100.00
6395;BME280;3230;42.588;23.358;2022-11-21T13:09:47;90086.13;;;4.39;100.00
6395;BME280;3230;42.588;23.358;2022-11-21T13:18:18;90099.34;;;4.16;100.00
6395;BME280;3230;42.588;23.358;2022-11-21T13:20:48;90105.56;;;4.26;100.00
6395;BME280;3230;42.588;23.358;2022-11-21T13:23:40;90099.06;;;4.13;100.00
6395;BME280;3230;42.588;23.358;2022-11-21T13:28:49;90103.94;;;3.99;100.00
6395;BME280;3230;42.588;23.358;2022-11-21T13:31:31;90086.34;;;3.96;100.00
6395;BME280;3230;42.588;23.358;2022-11-21T13:33:58;90102.38;;;3.98;100.00
6395;BME280;3230;42.588;23.358;2022-11-21T14:01:10;90097.69;;;3.74;100.00
6395;BME280;3230;42.588;23.358;2022-11-21T14:06:34;90096.59;;;3.65;100.00
6395;BME280;3230;42.588;23.358;2022-11-21T14:09:24;90095.78;;;3.59;100.00
6395;BME280;3230;42.588;23.358;2022-11-21T14:12:04;90083.66;;;3.65;100.00
6395;BME280;3230;42.588;23.358;2022-11-21T14:21:02;90095.34;;;3.73;100.00
6395;BME280;3230;42.588;23.358;2022-11-21T14:23:15;90086.50;;;3.74;100.00
6395;BME280;3230;42.588;23.358;2022-11-21T14:25:54;90102.84;;;3.69;100.00
6395;BME280;3230;42.588;23.358;2022-11-21T14:33:27;90107.28;;;3.79;100.00
6395;BME280;3230;42.588;23.358;2022-11-21T14:36:05;90111.13;;;3.66;100.00
6395;BME280;3230;42.588;23.358;2022-11-21T14:38:55;90115.75;;;3.54;100.00
6395;BME280;3230;42.588;23.358;2022-11-21T14:41:24;90107.16;;;3.48;100.00
6395;BME280;3230;42.588;23.358;2022-11-21T14:46:21;90117.03;;;3.51;100.00
6395;BME280;3230;42.588;23.358;2022-11-21T14:48:47;90105.03;;;3.40;100.00
6395;BME280;3230;42.588;23.358;2022-11-21T14:51:16;90123.19;;;3.40;100.00
6395;BME280;3230;42.588;23.358;2022-11-21T14:53:44;90126.03;;;3.43;100.00
6395;BME280;3230;42.588;23.358;2022-11-21T14:56:20;90118.25;;;3.38;100.00
6395;BME280;3230;42.588;23.358;2022-11-21T14:58:47;90116.78;;;3.52;100.00
6395;BME280;3230;42.588;23.358;2022-11-21T15:01:21;90127.78;;;3.27;100.00
6395;BME280;3230;42.588;23.358;2022-11-21T15:06:23;90113.06;;;3.33;100.00
6395;BME280;3230;42.588;23.358;2022-11-21T15:08:52;90123.91;;;3.30;100.00
6395;BME280;3230;42.588;23.358;2022-11-21T15:11:22;90137.94;;;3.34;100.00
6395;BME280;3230;42.588;23.358;2022-11-21T15:13:53;90152.50;;;3.02;100.00
6395;BME280;3230;42.588;23.358;2022-11-21T15:16:22;90146.03;;;3.05;100.00
6395;BME280;3230;42.588;23.358;2022-11-21T15:18:48;90130.50;;;3.00;100.00
6395;BME280;3230;42.588;23.358;2022-11-21T15:21:14;90142.47;;;3.16;100.00
6395;BME280;3230;42.588;23.358;2022-11-21T15:23:40;90140.41;;;3.13;100.00
6395;BME280;3230;42.588;23.358;2022-11-21T15:26:32;90149.47;;;3.16;100.00
6395;BME280;3230;42.588;23.358;2022-11-21T15:28:59;90152.84;;;3.16;100.00
6395;BME280;3230;42.588;23.358;2022-11-21T15:31:26;90151.31;;;3.20;100.00
6395;BME280;3230;42.588;23.358;2022-11-21T15:33:59;90155.97;;;3.18;100.00
6395;BME280;3230;42.588;23.358;2022-11-21T15:36:26;90147.19;;;3.25;100.00
6395;BME280;3230;42.588;23.358;2022-11-21T15:39:05;90143.03;;;3.24;100.00
6395;BME280;3230;42.588;23.358;2022-11-21T15:41:36;90135.47;;;3.12;100.00
6395;BME280;3230;42.588;23.358;2022-11-21T15:48:54;90139.75;;;2.96;100.00
6395;BME280;3230;42.588;23.358;2022-11-21T15:51:23;90133.53;;;2.92;100.00